Time;durP1;ratioP1;P1;durP2;ratioP2;P2;SDS_P1;SDS_P2;PMS_P1;PMS_P2;Temp;Humidity;BMP_temperature;BMP_pressure;BME280_temperature;BME280_humidity;BME280_pressure;Samples;Min_cycle;Max_cycle;Signal;HPM_P1;HPM_P2
2022/05/22 00:04:21;;;;;;;1.42;0.60;;;12.20;99.90;;;;;;20586113;28;20053;-38
2022/05/22 00:14:25;;;;;;;3.65;1.85;;;12.10;99.90;;;;;;20598946;28;20034;-38
2022/05/22 00:24:29;;;;;;;2.00;0.95;;;12.00;99.90;;;;;;20585940;28;20050;-38
2022/05/22 00:34:30;;;;;;;5.53;0.80;;;11.80;99.90;;;;;;20589886;28;20031;-39
2022/05/22 00:44:31;;;;;;;2.28;1.13;;;11.90;99.90;;;;;;20587583;28;20050;-38
2022/05/22 00:54:42;;;;;;;1.60;0.77;;;11.70;99.90;;;;;;20602412;28;20594;-39
2022/05/22 01:04:45;;;;;;;4.18;1.02;;;11.60;99.90;;;;;;20603512;28;20548;-38
2022/05/22 01:14:47;;;;;;;3.65;1.95;;;11.60;99.90;;;;;;20616509;28;20366;-38
2022/05/22 01:24:48;;;;;;;1.27;0.57;;;11.40;99.90;;;;;;20606565;28;20038;-38
2022/05/22 01:34:49;;;;;;;1.48;0.50;;;11.30;99.90;;;;;;20606476;28;20042;-38
2022/05/22 01:44:51;;;;;;;1.70;0.80;;;11.30;99.90;;;;;;20604707;28;20042;-40
2022/05/22 01:54:52;;;;;;;1.35;0.50;;;11.30;99.90;;;;;;20604687;28;20042;-40
2022/05/22 02:04:53;;;;;;;1.70;0.85;;;11.20;99.90;;;;;;20598140;28;20648;-41
2022/05/22 02:14:54;;;;;;;1.55;0.80;;;11.10;99.90;;;;;;20601930;28;20045;-41
2022/05/22 02:24:55;;;;;;;2.08;0.85;;;10.90;99.90;;;;;;20597438;28;20037;-41
2022/05/22 05:45:31;;;;;;;3.25;1.30;;;12.40;99.90;;;;;;20965742;23;20056;-38
2022/05/22 05:55:33;;;;;;;3.00;1.52;;;12.80;99.90;;;;;;20770226;28;20583;-38
2022/05/22 06:05:34;;;;;;;2.20;0.80;;;13.20;99.90;;;;;;20772069;28;20495;-38
2022/05/22 06:15:35;;;;;;;2.83;1.30;;;13.50;99.90;;;;;;20761665;28;20183;-39
2022/05/22 06:25:36;;;;;;;5.35;1.75;;;13.90;99.90;;;;;;20746394;28;20045;-38
2022/05/22 06:35:41;;;;;;;2.38;1.30;;;14.10;99.90;;;;;;20769049;28;20335;-38
2022/05/22 06:45:51;;;;;;;1.85;1.02;;;14.20;99.90;;;;;;20751107;28;20049;-39
2022/05/22 06:55:52;;;;;;;2.00;1.08;;;14.50;99.90;;;;;;20760233;28;20044;-39
2022/05/22 07:05:53;;;;;;;4.85;1.83;;;14.70;99.90;;;;;;20756418;28;20404;-39
2022/05/22 07:16:02;;;;;;;1.15;0.60;;;14.90;99.90;;;;;;20738668;28;20069;-39
2022/05/22 07:26:05;;;;;;;1.60;0.68;;;15.10;99.90;;;;;;20734997;28;20886;-39
2022/05/22 07:36:06;;;;;;;1.15;0.40;;;15.30;99.90;;;;;;20756994;28;20049;-39
2022/05/22 07:46:09;;;;;;;8.48;1.67;;;15.40;99.90;;;;;;20728243;28;20113;-39
2022/05/22 07:56:12;;;;;;;6.60;1.48;;;15.70;99.90;;;;;;20750661;28;20472;-38
2022/05/22 08:06:13;;;;;;;2.20;1.05;;;16.00;99.90;;;;;;20757017;28;20045;-40
2022/05/22 08:16:14;;;;;;;1.42;0.60;;;16.20;99.90;;;;;;20743657;28;20041;-41
2022/05/22 08:26:17;;;;;;;2.35;0.82;;;16.30;99.90;;;;;;20743794;28;20578;-41
2022/05/22 08:36:18;;;;;;;2.13;1.10;;;16.50;99.90;;;;;;20753126;28;20127;-41
2022/05/22 08:46:26;;;;;;;1.80;0.70;;;16.90;99.90;;;;;;20713085;28;20052;-41
2022/05/22 09:07:20;;;;;;;1.35;1.02;;;17.60;99.90;;;;;;20721417;28;20521;-41
2022/05/22 09:17:27;;;;;;;1.73;0.60;;;17.70;99.90;;;;;;20743743;28;20356;-41
2022/05/22 09:27:28;;;;;;;;;;;17.80;99.90;;;;;;20744234;28;20049;-39
2022/05/22 09:37:56;;;;;;;1.20;0.47;;;18.10;99.90;;;;;;20764088;28;20039;-39
2022/05/22 09:48:23;;;;;;;1.92;0.77;;;18.50;99.90;;;;;;20704103;28;20057;-39
2022/05/22 09:58:49;;;;;;;1.67;1.23;;;19.00;99.90;;;;;;20756782;28;21243;-39
2022/05/22 10:08:59;;;;;;;2.65;0.60;;;19.30;99.90;;;;;;20759179;28;20054;-39
2022/05/22 10:19:03;;;;;;;0.82;0.25;;;19.40;99.90;;;;;;20776954;28;20046;-39
2022/05/22 10:29:18;;;;;;;1.70;0.52;;;19.50;99.90;;;;;;20803667;28;20410;-39
2022/05/22 10:39:20;;;;;;;1.33;0.52;;;20.00;99.90;;;;;;20777093;28;20045;-39
2022/05/22 10:49:34;;;;;;;2.13;0.80;;;20.00;99.90;;;;;;20782810;28;20078;-38
2022/05/22 10:59:35;;;;;;;1.58;0.52;;;20.10;99.90;;;;;;20786141;28;20416;-39
2022/05/22 11:09:47;;;;;;;1.38;0.52;;;20.30;99.90;;;;;;20772435;28;20052;-39
2022/05/22 11:19:54;;;;;;;1.15;0.40;;;20.50;99.90;;;;;;20783873;28;20049;-39
2022/05/22 11:30:31;;;;;;;1.23;0.63;;;20.80;99.90;;;;;;20774676;28;20042;-39
2022/05/22 11:40:56;;;;;;;1.10;0.38;;;21.30;99.10;;;;;;20766697;28;21587;-39
2022/05/22 11:51:22;;;;;;;5.35;0.70;;;21.50;98.30;;;;;;20785387;28;20045;-38
2022/05/22 12:01:46;;;;;;;1.23;0.50;;;21.60;96.20;;;;;;20770455;28;20137;-39
2022/05/22 12:12:01;;;;;;;1.27;0.40;;;21.90;96.80;;;;;;20805690;28;20056;-39
2022/05/22 12:22:19;;;;;;;2.88;1.17;;;21.60;95.40;;;;;;20779856;28;20048;-39
2022/05/22 12:32:26;;;;;;;1.85;1.15;;;21.90;98.80;;;;;;20781691;28;20497;-39
2022/05/22 12:42:31;;;;;;;3.43;1.27;;;22.30;99.00;;;;;;20774347;28;20041;-39
2022/05/22 12:52:33;;;;;;;2.53;1.25;;;22.10;96.70;;;;;;20810382;28;20506;-39
2022/05/22 13:02:43;;;;;;;3.38;0.85;;;22.00;98.90;;;;;;20817584;28;20048;-39
2022/05/22 13:12:56;;;;;;;1.83;0.73;;;22.60;97.50;;;;;;20798219;28;20290;-39
2022/05/22 13:23:13;;;;;;;3.83;1.55;;;22.70;98.00;;;;;;20788872;28;20144;-39
2022/05/22 13:33:15;;;;;;;3.63;1.83;;;22.60;97.10;;;;;;20790930;28;21507;-39
2022/05/22 13:43:39;;;;;;;2.63;1.17;;;22.70;97.10;;;;;;20780217;28;20303;-39
2022/05/22 13:53:46;;;;;;;2.90;1.35;;;22.40;97.30;;;;;;20791424;28;20049;-39
2022/05/22 14:03:51;;;;;;;1.80;1.10;;;22.10;97.40;;;;;;20733875;28;20073;-38
2022/05/22 14:13:59;;;;;;;3.42;2.13;;;22.10;97.80;;;;;;20760856;28;20365;-39
2022/05/22 14:34:26;;;;;;;2.95;1.45;;;21.50;98.70;;;;;;20742647;28;21543;-38
2022/05/22 14:44:31;;;;;;;2.28;1.13;;;21.70;98.20;;;;;;20752588;28;20480;-39
2022/05/22 14:54:43;;;;;;;3.65;2.10;;;21.80;99.60;;;;;;20747284;28;20057;-39
2022/05/22 15:04:45;;;;;;;4.03;1.50;;;22.00;98.90;;;;;;20767261;28;20087;-38
2022/05/22 15:14:49;;;;;;;3.22;1.77;;;21.90;97.90;;;;;;20761157;28;20052;-39
2022/05/22 15:35:11;;;;;;;3.30;2.00;;;22.00;98.10;;;;;;20751735;28;20237;-39
2022/05/22 15:45:14;;;;;;;3.28;2.08;;;21.70;99.90;;;;;;20757914;28;20036;-39
2022/05/22 15:55:27;;;;;;;3.42;2.05;;;21.90;99.00;;;;;;20775930;28;20033;-38
2022/05/22 16:05:29;;;;;;;3.33;2.10;;;21.90;99.50;;;;;;20777222;28;20049;-39
2022/05/22 16:15:30;;;;;;;3.53;1.92;;;22.00;99.60;;;;;;20767233;28;20674;-39
2022/05/22 16:25:31;;;;;;;3.67;2.30;;;21.80;99.90;;;;;;20751550;28;20492;-38
2022/05/22 16:35:32;;;;;;;2.63;1.38;;;21.90;99.20;;;;;;20766765;28;20171;-38
2022/05/22 16:45:34;;;;;;;2.88;1.80;;;21.50;99.80;;;;;;20757317;28;20460;-39
2022/05/22 16:55:43;;;;;;;3.25;2.20;;;21.40;99.50;;;;;;20755924;28;20080;-39
2022/05/22 17:05:44;;;;;;;3.75;2.00;;;21.30;99.90;;;;;;20758424;28;20084;-39
2022/05/22 17:15:45;;;;;;;2.78;1.40;;;21.30;99.90;;;;;;20759324;28;20071;-39
2022/05/22 17:25:46;;;;;;;2.92;1.48;;;21.30;99.90;;;;;;20755448;28;20136;-38
2022/05/22 17:35:47;;;;;;;3.22;1.58;;;21.20;99.90;;;;;;20749625;28;20745;-38
2022/05/22 17:45:49;;;;;;;4.72;1.83;;;21.20;99.90;;;;;;20764484;28;20124;-39
2022/05/22 17:55:52;;;;;;;1.58;1.00;;;21.10;99.90;;;;;;20767116;28;20371;-39
2022/05/22 18:05:53;;;;;;;3.17;1.45;;;21.00;99.90;;;;;;20759488;28;20128;-39
2022/05/22 18:16:07;;;;;;;3.67;1.45;;;21.00;99.90;;;;;;20713717;28;20589;-39
2022/05/22 18:26:14;;;;;;;1.25;0.95;;;20.90;99.90;;;;;;20737215;28;20463;-39
2022/05/22 18:36:17;;;;;;;1.85;1.20;;;20.80;99.90;;;;;;20744855;28;20060;-39
2022/05/22 18:46:18;;;;;;;2.53;1.17;;;20.70;99.90;;;;;;20762135;28;20072;-39
2022/05/22 18:56:31;;;;;;;4.20;1.50;;;20.60;99.90;;;;;;20773597;28;20800;-39
2022/05/22 19:06:32;;;;;;;1.67;0.80;;;20.40;99.90;;;;;;20775633;28;20052;-38
2022/05/22 19:16:44;;;;;;;2.00;0.88;;;20.30;99.90;;;;;;20769247;28;20045;-39
2022/05/22 19:26:49;;;;;;;3.83;1.50;;;20.10;99.90;;;;;;20713538;28;20089;-39
2022/05/22 19:36:52;;;;;;;1.60;0.73;;;20.00;99.90;;;;;;20740906;28;20149;-39
2022/05/22 19:46:57;;;;;;;3.22;0.60;;;19.80;99.90;;;;;;20740326;28;20293;-39
2022/05/22 20:07:26;;;;;;;1.33;0.70;;;19.30;99.90;;;;;;20750340;28;20443;-39
2022/05/22 20:17:29;;;;;;;1.30;0.60;;;19.00;99.90;;;;;;20671654;28;21222;-38
2022/05/22 20:27:31;;;;;;;2.90;1.00;;;18.90;99.90;;;;;;20667756;28;20084;-39
2022/05/22 20:37:32;;;;;;;2.60;1.20;;;18.80;99.90;;;;;;20658558;28;20065;-39
2022/05/22 20:47:34;;;;;;;2.40;0.80;;;18.70;99.90;;;;;;20678890;28;20406;-39
2022/05/22 20:57:36;;;;;;;1.73;1.00;;;18.60;99.90;;;;;;20680312;28;20338;-39
2022/05/22 21:07:38;;;;;;;3.35;0.90;;;18.50;99.90;;;;;;20683898;28;20358;-39
2022/05/22 21:17:42;;;;;;;1.08;0.60;;;18.50;99.90;;;;;;20700301;28;20056;-39
2022/05/22 21:38:04;;;;;;;3.53;1.63;;;18.40;99.90;;;;;;20692949;28;20025;-39
2022/05/22 21:48:06;;;;;;;1.35;0.60;;;18.30;99.90;;;;;;20692437;28;20060;-39
2022/05/22 21:58:09;;;;;;;1.42;0.50;;;18.10;99.90;;;;;;20626906;28;20045;-38
2022/05/22 22:08:10;;;;;;;1.58;0.73;;;18.10;99.90;;;;;;20610817;28;20688;-38
2022/05/22 22:18:11;;;;;;;1.95;0.82;;;18.10;99.90;;;;;;20626026;28;20049;-38
2022/05/22 22:28:12;;;;;;;1.23;0.73;;;18.00;99.90;;;;;;20597696;28;20053;-39
2022/05/22 22:38:13;;;;;;;1.83;0.60;;;18.00;99.90;;;;;;20596662;28;20058;-38
2022/05/22 22:48:14;;;;;;;1.55;0.50;;;18.00;99.90;;;;;;20636922;28;20045;-38
2022/05/22 22:58:22;;;;;;;1.50;0.60;;;17.80;99.90;;;;;;20672828;28;20033;-38
2022/05/22 23:08:24;;;;;;;1.33;0.50;;;17.90;99.90;;;;;;20692444;28;20045;-38
2022/05/22 23:18:25;;;;;;;2.03;1.15;;;17.80;99.90;;;;;;20687630;28;20069;-39
2022/05/22 23:28:27;;;;;;;0.60;0.30;;;17.80;99.90;;;;;;20687262;28;20049;-38
2022/05/22 23:39:14;;;;;;;3.88;1.65;;;17.70;99.90;;;;;;20682473;28;20030;-38
2022/05/22 23:48:51;;;;;;;0.80;0.30;;;17.70;99.90;;;;;;20682031;28;20092;-39
2022/05/22 23:58:53;;;;;;;1.42;0.50;;;17.50;99.90;;;;;;20676548;28;20037;-39
